Larrys River, Canada
Current Conditions -  °F | °C
As of 1:46 AM on Sunday 26 Oct 2014 (Local Time) from CYPD Reporting Station
Overcast Overcast  
Wind Chill: 42°   Ceiling: 600
Heat Index: 46°   Visibility: 9mi
Dew Point: 46°   Wind: 8mph
Humidity: 100%   Direction: 250°WSW
Pressure: 29.48"   Gusts: NA
Location:  45.22°N, 61.37°W
Report Text: CYPD 260446Z AUTO 25007KT 9SM BKN006 BKN014 OVC019 08/08 A2948 RMK SLP983
Loading
Personal Weather Stations






























Interactive Weather Map
Tropical Storm Tracking
New forecast layout! Learn more

10-Day Weather Forecast

Advertisements
Track Severe Weather on mobile